KFOD

Fort Dodge Regional Airport

Airport
ICAO code
KFOD
Summary
ICAO Region
NAM
ICAO Territory
Location

Fort Dodge, Iowa,

Elevation
1156 ft
Coordinates
42° 33' 9" N , 94° 11' 28" W
KCC
Airport CFIT
Altimeter Temperature Error Correction
Metar
Observation
KFOD 070856Z AUTO 35005KT 10SM CLR 04/01 A3044 RMK AO2 SLP328 T00440011 51009
Station
Fort Dodge
Date/Time
2022-10-07 08:56:00
Wind direction
350°
Wind speed
05 kts
Lowest cloud amount
n/a
Temperature
4.4°C
Dew point
1.1°C
Humidity
79%
Weather condition
n/a

Description

Fort Dodge Regional Airport is a public use airport located 6 km north of the central business district of Fort Dodge, a city in Webster County, Iowa.

Climatology

Humid continental climate (Köppen climate classification Dfa) - characterized by four seasons: cold, windy, snowy winters, mild springs, hot, humid summers, and crisp and relatively short autumns. Precipitation reaches its lowest in January and February and peaks in summer and latter half of spring.

Airport map

Aerial View

SKYbrary Partners:

Safety knowledge contributed by: